sensor_id;sensor_type;location;lat;lon;timestamp;P1;durP1;ratioP1;P2;durP2;ratioP2
14736;SDS011;7459;53.590;10.062;2023-07-31T00:00:15;4.07;;;1.23;;
14736;SDS011;7459;53.590;10.062;2023-07-31T00:02:41;7.50;;;1.93;;
14736;SDS011;7459;53.590;10.062;2023-07-31T00:05:08;6.15;;;1.05;;
14736;SDS011;7459;53.590;10.062;2023-07-31T00:07:34;7.22;;;1.10;;
14736;SDS011;7459;53.590;10.062;2023-07-31T00:10:00;4.30;;;1.00;;
14736;SDS011;7459;53.590;10.062;2023-07-31T00:12:26;5.30;;;1.65;;
14736;SDS011;7459;53.590;10.062;2023-07-31T00:14:51;6.13;;;0.90;;
14736;SDS011;7459;53.590;10.062;2023-07-31T00:17:17;4.75;;;1.02;;
14736;SDS011;7459;53.590;10.062;2023-07-31T00:19:43;6.03;;;1.02;;
14736;SDS011;7459;53.590;10.062;2023-07-31T00:22:11;6.60;;;0.97;;
14736;SDS011;7459;53.590;10.062;2023-07-31T00:24:37;7.57;;;0.80;;
14736;SDS011;7459;53.590;10.062;2023-07-31T00:27:02;5.00;;;0.73;;
14736;SDS011;7459;53.590;10.062;2023-07-31T00:29:29;3.63;;;0.85;;
14736;SDS011;7459;53.590;10.062;2023-07-31T00:31:54;6.33;;;1.20;;
14736;SDS011;7459;53.590;10.062;2023-07-31T00:34:20;4.13;;;0.82;;
14736;SDS011;7459;53.590;10.062;2023-07-31T00:36:46;5.67;;;1.00;;
14736;SDS011;7459;53.590;10.062;2023-07-31T00:39:11;6.63;;;1.03;;
14736;SDS011;7459;53.590;10.062;2023-07-31T00:41:37;4.27;;;0.90;;
14736;SDS011;7459;53.590;10.062;2023-07-31T00:44:03;5.83;;;0.87;;
14736;SDS011;7459;53.590;10.062;2023-07-31T00:46:28;8.73;;;1.20;;
14736;SDS011;7459;53.590;10.062;2023-07-31T00:48:54;6.22;;;1.02;;
14736;SDS011;7459;53.590;10.062;2023-07-31T00:51:20;5.80;;;0.90;;
14736;SDS011;7459;53.590;10.062;2023-07-31T00:53:46;6.15;;;0.80;;
14736;SDS011;7459;53.590;10.062;2023-07-31T00:56:12;5.70;;;1.10;;
14736;SDS011;7459;53.590;10.062;2023-07-31T00:58:38;4.67;;;0.80;;
14736;SDS011;7459;53.590;10.062;2023-07-31T01:01:05;10.40;;;1.67;;
14736;SDS011;7459;53.590;10.062;2023-07-31T01:03:31;5.25;;;1.23;;
14736;SDS011;7459;53.590;10.062;2023-07-31T01:06:04;7.83;;;0.87;;
14736;SDS011;7459;53.590;10.062;2023-07-31T01:08:54;6.40;;;1.08;;
14736;SDS011;7459;53.590;10.062;2023-07-31T01:11:28;7.30;;;1.48;;
14736;SDS011;7459;53.590;10.062;2023-07-31T01:14:06;6.10;;;1.30;;
14736;SDS011;7459;53.590;10.062;2023-07-31T01:16:31;6.10;;;1.03;;
14736;SDS011;7459;53.590;10.062;2023-07-31T01:18:57;5.00;;;1.33;;
14736;SDS011;7459;53.590;10.062;2023-07-31T01:27:06;7.43;;;1.00;;
14736;SDS011;7459;53.590;10.062;2023-07-31T01:32:47;7.37;;;1.67;;
14736;SDS011;7459;53.590;10.062;2023-07-31T01:35:13;5.75;;;1.08;;
14736;SDS011;7459;53.590;10.062;2023-07-31T01:37:40;6.60;;;1.33;;
14736;SDS011;7459;53.590;10.062;2023-07-31T01:40:05;9.77;;;1.40;;
14736;SDS011;7459;53.590;10.062;2023-07-31T01:42:32;7.67;;;1.20;;
14736;SDS011;7459;53.590;10.062;2023-07-31T01:44:58;7.30;;;1.80;;
14736;SDS011;7459;53.590;10.062;2023-07-31T01:47:24;7.17;;;1.33;;
14736;SDS011;7459;53.590;10.062;2023-07-31T01:49:49;6.00;;;1.48;;
14736;SDS011;7459;53.590;10.062;2023-07-31T01:52:15;10.77;;;1.33;;
14736;SDS011;7459;53.590;10.062;2023-07-31T01:54:41;5.80;;;0.90;;
14736;SDS011;7459;53.590;10.062;2023-07-31T01:57:06;5.17;;;1.33;;
14736;SDS011;7459;53.590;10.062;2023-07-31T01:59:32;8.65;;;1.38;;
14736;SDS011;7459;53.590;10.062;2023-07-31T02:01:58;6.53;;;1.00;;
14736;SDS011;7459;53.590;10.062;2023-07-31T02:06:59;7.78;;;1.80;;
14736;SDS011;7459;53.590;10.062;2023-07-31T02:09:24;4.60;;;0.77;;
14736;SDS011;7459;53.590;10.062;2023-07-31T02:11:50;7.45;;;1.50;;
14736;SDS011;7459;53.590;10.062;2023-07-31T02:14:16;7.10;;;1.63;;
14736;SDS011;7459;53.590;10.062;2023-07-31T02:16:41;6.47;;;1.63;;
14736;SDS011;7459;53.590;10.062;2023-07-31T02:19:07;7.57;;;2.37;;
14736;SDS011;7459;53.590;10.062;2023-07-31T02:21:37;5.05;;;1.42;;
14736;SDS011;7459;53.590;10.062;2023-07-31T02:24:03;5.87;;;1.53;;
14736;SDS011;7459;53.590;10.062;2023-07-31T02:26:29;6.23;;;1.93;;
14736;SDS011;7459;53.590;10.062;2023-07-31T02:28:55;4.82;;;1.00;;
14736;SDS011;7459;53.590;10.062;2023-07-31T02:31:20;8.03;;;1.63;;
14736;SDS011;7459;53.590;10.062;2023-07-31T02:33:46;5.57;;;1.55;;
14736;SDS011;7459;53.590;10.062;2023-07-31T02:36:12;5.53;;;1.13;;
14736;SDS011;7459;53.590;10.062;2023-07-31T02:38:38;7.60;;;1.25;;
14736;SDS011;7459;53.590;10.062;2023-07-31T02:41:03;4.50;;;1.10;;
14736;SDS011;7459;53.590;10.062;2023-07-31T02:43:29;5.47;;;1.20;;
14736;SDS011;7459;53.590;10.062;2023-07-31T02:45:55;7.10;;;1.20;;
14736;SDS011;7459;53.590;10.062;2023-07-31T02:48:20;7.40;;;1.23;;
14736;SDS011;7459;53.590;10.062;2023-07-31T02:50:47;8.90;;;1.20;;
14736;SDS011;7459;53.590;10.062;2023-07-31T02:53:13;7.07;;;2.27;;
14736;SDS011;7459;53.590;10.062;2023-07-31T02:55:39;5.13;;;1.05;;
14736;SDS011;7459;53.590;10.062;2023-07-31T02:58:06;6.88;;;1.30;;
14736;SDS011;7459;53.590;10.062;2023-07-31T03:00:31;5.77;;;1.67;;
14736;SDS011;7459;53.590;10.062;2023-07-31T03:02:57;5.78;;;1.08;;
14736;SDS011;7459;53.590;10.062;2023-07-31T03:05:23;5.97;;;1.10;;
14736;SDS011;7459;53.590;10.062;2023-07-31T03:07:48;6.63;;;1.60;;
14736;SDS011;7459;53.590;10.062;2023-07-31T03:10:14;4.83;;;1.40;;
14736;SDS011;7459;53.590;10.062;2023-07-31T03:12:40;6.53;;;1.30;;
14736;SDS011;7459;53.590;10.062;2023-07-31T03:15:06;7.30;;;1.25;;
14736;SDS011;7459;53.590;10.062;2023-07-31T03:17:32;4.72;;;1.23;;
14736;SDS011;7459;53.590;10.062;2023-07-31T03:19:58;4.47;;;1.40;;
14736;SDS011;7459;53.590;10.062;2023-07-31T03:22:24;5.78;;;1.23;;
14736;SDS011;7459;53.590;10.062;2023-07-31T03:24:50;5.87;;;1.33;;
14736;SDS011;7459;53.590;10.062;2023-07-31T03:27:15;4.27;;;0.83;;
14736;SDS011;7459;53.590;10.062;2023-07-31T03:29:41;6.43;;;1.40;;
14736;SDS011;7459;53.590;10.062;2023-07-31T03:32:07;3.53;;;1.07;;
14736;SDS011;7459;53.590;10.062;2023-07-31T03:34:32;5.80;;;1.43;;
14736;SDS011;7459;53.590;10.062;2023-07-31T03:36:59;4.32;;;1.10;;
14736;SDS011;7459;53.590;10.062;2023-07-31T03:39:24;5.63;;;1.20;;
14736;SDS011;7459;53.590;10.062;2023-07-31T03:41:50;7.18;;;1.63;;
14736;SDS011;7459;53.590;10.062;2023-07-31T03:44:16;7.77;;;1.47;;
14736;SDS011;7459;53.590;10.062;2023-07-31T03:46:41;4.55;;;1.20;;
14736;SDS011;7459;53.590;10.062;2023-07-31T03:49:07;8.30;;;1.80;;
14736;SDS011;7459;53.590;10.062;2023-07-31T03:51:33;4.30;;;1.20;;
14736;SDS011;7459;53.590;10.062;2023-07-31T03:53:58;5.37;;;1.60;;
14736;SDS011;7459;53.590;10.062;2023-07-31T03:56:24;4.97;;;1.83;;
14736;SDS011;7459;53.590;10.062;2023-07-31T03:58:50;5.53;;;1.73;;
14736;SDS011;7459;53.590;10.062;2023-07-31T04:01:16;5.23;;;1.43;;
14736;SDS011;7459;53.590;10.062;2023-07-31T04:03:42;6.50;;;1.52;;
14736;SDS011;7459;53.590;10.062;2023-07-31T04:06:08;5.70;;;1.30;;
14736;SDS011;7459;53.590;10.062;2023-07-31T04:08:35;5.23;;;1.70;;
14736;SDS011;7459;53.590;10.062;2023-07-31T04:11:01;5.63;;;1.55;;
14736;SDS011;7459;53.590;10.062;2023-07-31T04:13:26;4.30;;;1.33;;
14736;SDS011;7459;53.590;10.062;2023-07-31T04:15:54;6.55;;;1.67;;
14736;SDS011;7459;53.590;10.062;2023-07-31T04:18:20;8.45;;;1.80;;
14736;SDS011;7459;53.590;10.062;2023-07-31T04:20:45;4.57;;;1.23;;
14736;SDS011;7459;53.590;10.062;2023-07-31T04:23:11;5.30;;;1.40;;
14736;SDS011;7459;53.590;10.062;2023-07-31T04:25:37;5.93;;;1.13;;
14736;SDS011;7459;53.590;10.062;2023-07-31T04:28:03;5.60;;;1.13;;
14736;SDS011;7459;53.590;10.062;2023-07-31T04:30:28;3.77;;;1.30;;
14736;SDS011;7459;53.590;10.062;2023-07-31T04:32:54;4.80;;;1.20;;
14736;SDS011;7459;53.590;10.062;2023-07-31T04:35:20;5.17;;;0.83;;
14736;SDS011;7459;53.590;10.062;2023-07-31T04:37:45;3.53;;;0.90;;
14736;SDS011;7459;53.590;10.062;2023-07-31T04:40:13;3.67;;;0.80;;
14736;SDS011;7459;53.590;10.062;2023-07-31T04:42:40;5.65;;;1.60;;
14736;SDS011;7459;53.590;10.062;2023-07-31T04:45:07;4.27;;;1.23;;
14736;SDS011;7459;53.590;10.062;2023-07-31T04:47:34;4.25;;;1.30;;
14736;SDS011;7459;53.590;10.062;2023-07-31T04:50:00;4.10;;;1.30;;
14736;SDS011;7459;53.590;10.062;2023-07-31T04:52:28;3.10;;;1.17;;
14736;SDS011;7459;53.590;10.062;2023-07-31T04:54:53;3.92;;;1.20;;
14736;SDS011;7459;53.590;10.062;2023-07-31T04:57:19;5.53;;;1.60;;
14736;SDS011;7459;53.590;10.062;2023-07-31T04:59:45;2.85;;;0.93;;
14736;SDS011;7459;53.590;10.062;2023-07-31T05:02:11;4.53;;;1.60;;
14736;SDS011;7459;53.590;10.062;2023-07-31T05:04:38;3.95;;;1.55;;
14736;SDS011;7459;53.590;10.062;2023-07-31T05:07:04;4.47;;;1.20;;
14736;SDS011;7459;53.590;10.062;2023-07-31T05:09:30;3.83;;;1.50;;
14736;SDS011;7459;53.590;10.062;2023-07-31T05:11:55;3.10;;;1.33;;
14736;SDS011;7459;53.590;10.062;2023-07-31T05:14:21;3.07;;;1.20;;
14736;SDS011;7459;53.590;10.062;2023-07-31T05:16:47;4.07;;;1.05;;
14736;SDS011;7459;53.590;10.062;2023-07-31T05:19:12;3.80;;;1.00;;
14736;SDS011;7459;53.590;10.062;2023-07-31T05:21:38;4.03;;;1.13;;
14736;SDS011;7459;53.590;10.062;2023-07-31T05:24:04;5.10;;;1.13;;
14736;SDS011;7459;53.590;10.062;2023-07-31T05:26:30;4.30;;;1.30;;
14736;SDS011;7459;53.590;10.062;2023-07-31T05:28:55;3.38;;;0.95;;
14736;SDS011;7459;53.590;10.062;2023-07-31T05:31:22;3.20;;;1.00;;
14736;SDS011;7459;53.590;10.062;2023-07-31T05:33:49;2.28;;;0.60;;
14736;SDS011;7459;53.590;10.062;2023-07-31T05:36:15;4.20;;;1.20;;
14736;SDS011;7459;53.590;10.062;2023-07-31T05:38:42;2.90;;;0.90;;
14736;SDS011;7459;53.590;10.062;2023-07-31T05:41:11;3.38;;;1.17;;
14736;SDS011;7459;53.590;10.062;2023-07-31T05:43:37;4.73;;;0.90;;
14736;SDS011;7459;53.590;10.062;2023-07-31T05:46:03;2.35;;;0.65;;
14736;SDS011;7459;53.590;10.062;2023-07-31T05:48:29;3.13;;;1.20;;
14736;SDS011;7459;53.590;10.062;2023-07-31T05:50:55;3.70;;;1.00;;
14736;SDS011;7459;53.590;10.062;2023-07-31T05:53:21;2.72;;;0.70;;
14736;SDS011;7459;53.590;10.062;2023-07-31T05:55:47;3.33;;;0.83;;
14736;SDS011;7459;53.590;10.062;2023-07-31T05:58:12;3.93;;;0.80;;
14736;SDS011;7459;53.590;10.062;2023-07-31T06:00:38;5.20;;;1.47;;
14736;SDS011;7459;53.590;10.062;2023-07-31T06:03:04;3.80;;;0.80;;
14736;SDS011;7459;53.590;10.062;2023-07-31T06:05:30;4.23;;;1.00;;
14736;SDS011;7459;53.590;10.062;2023-07-31T06:07:56;2.43;;;0.90;;
14736;SDS011;7459;53.590;10.062;2023-07-31T06:10:22;3.15;;;0.90;;
14736;SDS011;7459;53.590;10.062;2023-07-31T06:12:48;2.93;;;1.10;;
14736;SDS011;7459;53.590;10.062;2023-07-31T06:15:14;4.27;;;1.00;;
14736;SDS011;7459;53.590;10.062;2023-07-31T06:17:39;3.47;;;1.23;;
14736;SDS011;7459;53.590;10.062;2023-07-31T06:20:06;4.22;;;1.40;;
14736;SDS011;7459;53.590;10.062;2023-07-31T06:22:32;3.60;;;1.20;;
14736;SDS011;7459;53.590;10.062;2023-07-31T06:24:59;3.42;;;0.98;;
14736;SDS011;7459;53.590;10.062;2023-07-31T06:27:25;4.68;;;1.40;;
14736;SDS011;7459;53.590;10.062;2023-07-31T06:29:50;3.07;;;1.33;;
14736;SDS011;7459;53.590;10.062;2023-07-31T06:32:16;3.80;;;1.13;;
14736;SDS011;7459;53.590;10.062;2023-07-31T06:34:42;4.13;;;1.20;;
14736;SDS011;7459;53.590;10.062;2023-07-31T06:37:08;2.63;;;0.98;;
14736;SDS011;7459;53.590;10.062;2023-07-31T06:39:33;3.93;;;1.20;;
14736;SDS011;7459;53.590;10.062;2023-07-31T06:41:59;2.63;;;0.90;;
14736;SDS011;7459;53.590;10.062;2023-07-31T06:44:25;3.20;;;1.20;;
14736;SDS011;7459;53.590;10.062;2023-07-31T06:46:50;3.55;;;1.30;;
14736;SDS011;7459;53.590;10.062;2023-07-31T06:49:16;4.03;;;1.60;;
14736;SDS011;7459;53.590;10.062;2023-07-31T06:51:42;3.17;;;1.20;;
14736;SDS011;7459;53.590;10.062;2023-07-31T06:54:09;3.55;;;1.58;;
14736;SDS011;7459;53.590;10.062;2023-07-31T06:56:34;3.80;;;1.77;;
14736;SDS011;7459;53.590;10.062;2023-07-31T06:59:02;4.65;;;1.73;;
14736;SDS011;7459;53.590;10.062;2023-07-31T07:01:28;3.38;;;1.58;;
14736;SDS011;7459;53.590;10.062;2023-07-31T07:03:54;3.70;;;1.20;;
14736;SDS011;7459;53.590;10.062;2023-07-31T07:06:22;6.17;;;1.53;;
14736;SDS011;7459;53.590;10.062;2023-07-31T07:08:48;3.03;;;1.10;;
14736;SDS011;7459;53.590;10.062;2023-07-31T07:11:14;2.83;;;1.30;;
14736;SDS011;7459;53.590;10.062;2023-07-31T07:13:39;3.00;;;1.10;;
14736;SDS011;7459;53.590;10.062;2023-07-31T07:16:05;3.17;;;0.93;;
14736;SDS011;7459;53.590;10.062;2023-07-31T07:18:31;3.15;;;1.20;;
14736;SDS011;7459;53.590;10.062;2023-07-31T07:20:57;2.80;;;0.98;;
14736;SDS011;7459;53.590;10.062;2023-07-31T07:23:23;3.40;;;1.13;;
14736;SDS011;7459;53.590;10.062;2023-07-31T07:25:49;3.38;;;0.88;;
14736;SDS011;7459;53.590;10.062;2023-07-31T07:28:16;2.72;;;1.02;;
14736;SDS011;7459;53.590;10.062;2023-07-31T07:30:42;3.25;;;1.05;;
14736;SDS011;7459;53.590;10.062;2023-07-31T07:33:07;2.17;;;0.60;;
14736;SDS011;7459;53.590;10.062;2023-07-31T07:35:33;2.50;;;0.60;;
14736;SDS011;7459;53.590;10.062;2023-07-31T07:38:00;5.07;;;0.77;;
14736;SDS011;7459;53.590;10.062;2023-07-31T07:40:28;2.97;;;0.60;;
14736;SDS011;7459;53.590;10.062;2023-07-31T07:42:54;3.03;;;0.80;;
14736;SDS011;7459;53.590;10.062;2023-07-31T07:45:19;3.20;;;0.50;;
14736;SDS011;7459;53.590;10.062;2023-07-31T07:47:45;2.08;;;0.50;;
14736;SDS011;7459;53.590;10.062;2023-07-31T07:50:11;4.47;;;0.80;;
14736;SDS011;7459;53.590;10.062;2023-07-31T07:52:37;3.33;;;0.70;;
14736;SDS011;7459;53.590;10.062;2023-07-31T07:55:02;3.40;;;0.77;;
14736;SDS011;7459;53.590;10.062;2023-07-31T07:57:29;3.38;;;1.02;;
14736;SDS011;7459;53.590;10.062;2023-07-31T07:59:54;2.60;;;0.80;;
14736;SDS011;7459;53.590;10.062;2023-07-31T08:02:21;2.77;;;0.80;;
14736;SDS011;7459;53.590;10.062;2023-07-31T08:04:47;2.35;;;0.85;;
14736;SDS011;7459;53.590;10.062;2023-07-31T08:07:13;2.35;;;1.00;;
14736;SDS011;7459;53.590;10.062;2023-07-31T08:09:39;3.97;;;1.20;;
14736;SDS011;7459;53.590;10.062;2023-07-31T08:12:06;3.83;;;1.13;;
14736;SDS011;7459;53.590;10.062;2023-07-31T08:14:32;2.80;;;0.80;;
14736;SDS011;7459;53.590;10.062;2023-07-31T08:16:58;4.47;;;1.60;;
14736;SDS011;7459;53.590;10.062;2023-07-31T08:19:24;2.58;;;0.98;;
14736;SDS011;7459;53.590;10.062;2023-07-31T08:21:49;3.10;;;1.30;;
14736;SDS011;7459;53.590;10.062;2023-07-31T08:24:15;2.60;;;0.90;;
14736;SDS011;7459;53.590;10.062;2023-07-31T08:26:41;3.03;;;1.27;;
14736;SDS011;7459;53.590;10.062;2023-07-31T08:29:07;4.00;;;1.40;;
14736;SDS011;7459;53.590;10.062;2023-07-31T08:31:33;3.55;;;1.10;;
14736;SDS011;7459;53.590;10.062;2023-07-31T08:33:59;3.17;;;1.55;;
14736;SDS011;7459;53.590;10.062;2023-07-31T08:36:25;4.37;;;1.23;;
14736;SDS011;7459;53.590;10.062;2023-07-31T08:38:51;3.37;;;1.23;;
14736;SDS011;7459;53.590;10.062;2023-07-31T08:41:17;4.13;;;1.10;;
14736;SDS011;7459;53.590;10.062;2023-07-31T08:43:44;2.70;;;1.27;;
14736;SDS011;7459;53.590;10.062;2023-07-31T08:46:14;2.85;;;1.00;;
14736;SDS011;7459;53.590;10.062;2023-07-31T08:48:41;2.97;;;0.90;;
14736;SDS011;7459;53.590;10.062;2023-07-31T08:51:08;3.25;;;0.90;;
14736;SDS011;7459;53.590;10.062;2023-07-31T08:53:34;2.90;;;1.30;;
14736;SDS011;7459;53.590;10.062;2023-07-31T08:56:00;4.27;;;1.03;;
14736;SDS011;7459;53.590;10.062;2023-07-31T08:58:32;2.97;;;0.85;;
14736;SDS011;7459;53.590;10.062;2023-07-31T09:01:00;2.35;;;0.85;;
14736;SDS011;7459;53.590;10.062;2023-07-31T09:03:28;2.15;;;0.70;;
14736;SDS011;7459;53.590;10.062;2023-07-31T09:06:00;2.58;;;1.00;;
14736;SDS011;7459;53.590;10.062;2023-07-31T09:08:30;3.30;;;0.50;;
14736;SDS011;7459;53.590;10.062;2023-07-31T09:10:58;2.83;;;0.40;;
14736;SDS011;7459;53.590;10.062;2023-07-31T09:13:31;2.30;;;0.55;;
14736;SDS011;7459;53.590;10.062;2023-07-31T09:15:57;3.55;;;0.82;;
14736;SDS011;7459;53.590;10.062;2023-07-31T09:18:23;2.70;;;0.77;;
14736;SDS011;7459;53.590;10.062;2023-07-31T09:21:05;2.90;;;0.50;;
14736;SDS011;7459;53.590;10.062;2023-07-31T09:23:43;1.60;;;0.30;;
14736;SDS011;7459;53.590;10.062;2023-07-31T09:26:11;3.17;;;0.88;;
14736;SDS011;7459;53.590;10.062;2023-07-31T09:28:54;1.65;;;0.50;;
14736;SDS011;7459;53.590;10.062;2023-07-31T09:31:31;4.33;;;0.70;;
14736;SDS011;7459;53.590;10.062;2023-07-31T09:34:07;2.20;;;0.60;;
14736;SDS011;7459;53.590;10.062;2023-07-31T09:36:39;2.00;;;0.40;;
14736;SDS011;7459;53.590;10.062;2023-07-31T09:39:15;3.23;;;0.30;;
14736;SDS011;7459;53.590;10.062;2023-07-31T09:41:43;2.20;;;0.57;;
14736;SDS011;7459;53.590;10.062;2023-07-31T09:44:12;1.92;;;0.68;;
14736;SDS011;7459;53.590;10.062;2023-07-31T09:46:38;1.75;;;0.43;;
14736;SDS011;7459;53.590;10.062;2023-07-31T09:49:05;2.05;;;0.38;;
14736;SDS011;7459;53.590;10.062;2023-07-31T09:51:34;3.13;;;0.60;;
14736;SDS011;7459;53.590;10.062;2023-07-31T09:54:13;2.40;;;0.40;;
14736;SDS011;7459;53.590;10.062;2023-07-31T09:56:42;2.63;;;0.40;;
14736;SDS011;7459;53.590;10.062;2023-07-31T09:59:17;2.15;;;0.38;;
14736;SDS011;7459;53.590;10.062;2023-07-31T10:01:44;3.28;;;0.55;;
14736;SDS011;7459;53.590;10.062;2023-07-31T10:04:12;2.37;;;0.50;;
14736;SDS011;7459;53.590;10.062;2023-07-31T10:06:39;1.95;;;0.60;;
14736;SDS011;7459;53.590;10.062;2023-07-31T10:09:09;1.90;;;0.20;;
14736;SDS011;7459;53.590;10.062;2023-07-31T10:11:38;2.03;;;0.30;;
14736;SDS011;7459;53.590;10.062;2023-07-31T10:14:08;2.70;;;0.30;;
14736;SDS011;7459;53.590;10.062;2023-07-31T10:16:37;1.90;;;0.30;;
14736;SDS011;7459;53.590;10.062;2023-07-31T10:19:04;3.30;;;0.63;;
14736;SDS011;7459;53.590;10.062;2023-07-31T10:21:31;1.52;;;0.30;;
14736;SDS011;7459;53.590;10.062;2023-07-31T10:24:02;1.73;;;0.40;;
14736;SDS011;7459;53.590;10.062;2023-07-31T10:26:30;2.55;;;0.40;;
14736;SDS011;7459;53.590;10.062;2023-07-31T10:28:57;2.07;;;0.40;;
14736;SDS011;7459;53.590;10.062;2023-07-31T10:31:24;2.30;;;0.50;;
14736;SDS011;7459;53.590;10.062;2023-07-31T10:33:51;2.55;;;0.40;;
14736;SDS011;7459;53.590;10.062;2023-07-31T10:36:18;1.55;;;0.32;;
14736;SDS011;7459;53.590;10.062;2023-07-31T10:38:45;2.22;;;0.30;;
14736;SDS011;7459;53.590;10.062;2023-07-31T10:41:13;3.83;;;0.50;;
14736;SDS011;7459;53.590;10.062;2023-07-31T10:43:39;2.33;;;0.40;;
14736;SDS011;7459;53.590;10.062;2023-07-31T10:46:09;1.13;;;0.40;;
14736;SDS011;7459;53.590;10.062;2023-07-31T10:48:38;1.33;;;0.20;;
14736;SDS011;7459;53.590;10.062;2023-07-31T10:51:09;2.17;;;0.47;;
14736;SDS011;7459;53.590;10.062;2023-07-31T10:53:37;1.60;;;0.20;;
14736;SDS011;7459;53.590;10.062;2023-07-31T10:56:05;2.03;;;0.20;;
14736;SDS011;7459;53.590;10.062;2023-07-31T10:58:37;4.65;;;0.25;;
14736;SDS011;7459;53.590;10.062;2023-07-31T11:01:04;2.10;;;0.30;;
14736;SDS011;7459;53.590;10.062;2023-07-31T11:03:49;1.48;;;0.30;;
14736;SDS011;7459;53.590;10.062;2023-07-31T11:06:18;1.33;;;0.13;;
14736;SDS011;7459;53.590;10.062;2023-07-31T11:08:48;1.00;;;0.20;;
14736;SDS011;7459;53.590;10.062;2023-07-31T11:11:18;1.50;;;0.67;;
14736;SDS011;7459;53.590;10.062;2023-07-31T11:13:46;2.25;;;0.43;;
14736;SDS011;7459;53.590;10.062;2023-07-31T11:16:21;1.10;;;0.10;;
14736;SDS011;7459;53.590;10.062;2023-07-31T11:18:50;1.30;;;0.28;;
14736;SDS011;7459;53.590;10.062;2023-07-31T11:23:48;2.47;;;0.37;;
14736;SDS011;7459;53.590;10.062;2023-07-31T11:26:21;1.75;;;0.20;;
14736;SDS011;7459;53.590;10.062;2023-07-31T11:28:49;1.67;;;0.60;;
14736;SDS011;7459;53.590;10.062;2023-07-31T11:31:16;1.88;;;0.45;;
14736;SDS011;7459;53.590;10.062;2023-07-31T11:33:43;3.78;;;0.50;;
14736;SDS011;7459;53.590;10.062;2023-07-31T11:36:19;1.60;;;0.30;;
14736;SDS011;7459;53.590;10.062;2023-07-31T11:38:45;1.60;;;0.20;;
14736;SDS011;7459;53.590;10.062;2023-07-31T11:41:13;0.98;;;0.20;;
14736;SDS011;7459;53.590;10.062;2023-07-31T11:43:41;1.52;;;0.40;;
14736;SDS011;7459;53.590;10.062;2023-07-31T11:46:07;3.00;;;0.30;;
14736;SDS011;7459;53.590;10.062;2023-07-31T11:48:34;1.27;;;0.20;;
14736;SDS011;7459;53.590;10.062;2023-07-31T11:51:03;2.10;;;0.30;;
14736;SDS011;7459;53.590;10.062;2023-07-31T11:56:17;1.30;;;0.20;;
14736;SDS011;7459;53.590;10.062;2023-07-31T11:58:49;3.75;;;0.50;;
14736;SDS011;7459;53.590;10.062;2023-07-31T12:01:20;2.88;;;0.30;;
14736;SDS011;7459;53.590;10.062;2023-07-31T12:03:47;1.58;;;0.30;;
14736;SDS011;7459;53.590;10.062;2023-07-31T12:06:13;1.23;;;0.20;;
14736;SDS011;7459;53.590;10.062;2023-07-31T12:08:39;1.83;;;0.30;;
14736;SDS011;7459;53.590;10.062;2023-07-31T12:11:05;2.03;;;0.40;;
14736;SDS011;7459;53.590;10.062;2023-07-31T12:13:34;1.65;;;0.28;;
14736;SDS011;7459;53.590;10.062;2023-07-31T12:16:01;3.78;;;0.32;;
14736;SDS011;7459;53.590;10.062;2023-07-31T12:18:29;1.70;;;0.28;;
14736;SDS011;7459;53.590;10.062;2023-07-31T12:21:00;1.55;;;0.20;;
14736;SDS011;7459;53.590;10.062;2023-07-31T12:23:30;1.90;;;0.40;;
14736;SDS011;7459;53.590;10.062;2023-07-31T12:26:01;1.63;;;0.35;;
14736;SDS011;7459;53.590;10.062;2023-07-31T12:28:36;1.98;;;0.35;;
14736;SDS011;7459;53.590;10.062;2023-07-31T12:31:22;1.13;;;0.30;;
14736;SDS011;7459;53.590;10.062;2023-07-31T12:33:52;1.58;;;0.40;;
14736;SDS011;7459;53.590;10.062;2023-07-31T12:36:23;4.93;;;0.90;;
14736;SDS011;7459;53.590;10.062;2023-07-31T12:38:50;2.58;;;0.30;;
14736;SDS011;7459;53.590;10.062;2023-07-31T12:41:17;2.13;;;0.38;;
14736;SDS011;7459;53.590;10.062;2023-07-31T12:43:44;1.40;;;0.30;;
14736;SDS011;7459;53.590;10.062;2023-07-31T12:46:11;1.27;;;0.30;;
14736;SDS011;7459;53.590;10.062;2023-07-31T12:48:38;1.10;;;0.10;;
14736;SDS011;7459;53.590;10.062;2023-07-31T12:51:04;1.20;;;0.13;;
14736;SDS011;7459;53.590;10.062;2023-07-31T12:53:31;1.55;;;0.20;;
14736;SDS011;7459;53.590;10.062;2023-07-31T12:55:57;1.83;;;0.10;;
14736;SDS011;7459;53.590;10.062;2023-07-31T12:58:23;1.42;;;0.30;;
14736;SDS011;7459;53.590;10.062;2023-07-31T13:00:49;1.57;;;0.10;;
14736;SDS011;7459;53.590;10.062;2023-07-31T13:03:15;2.05;;;0.10;;
14736;SDS011;7459;53.590;10.062;2023-07-31T13:05:41;1.50;;;0.30;;
14736;SDS011;7459;53.590;10.062;2023-07-31T13:08:07;1.90;;;0.28;;
14736;SDS011;7459;53.590;10.062;2023-07-31T13:10:32;1.88;;;0.50;;
14736;SDS011;7459;53.590;10.062;2023-07-31T13:12:58;1.23;;;0.10;;
14736;SDS011;7459;53.590;10.062;2023-07-31T13:15:24;1.60;;;0.30;;
14736;SDS011;7459;53.590;10.062;2023-07-31T13:17:49;1.07;;;0.23;;
14736;SDS011;7459;53.590;10.062;2023-07-31T13:20:15;1.00;;;0.20;;
14736;SDS011;7459;53.590;10.062;2023-07-31T13:22:41;1.17;;;0.10;;
14736;SDS011;7459;53.590;10.062;2023-07-31T13:25:07;0.98;;;0.10;;
14736;SDS011;7459;53.590;10.062;2023-07-31T13:27:33;2.10;;;0.30;;
14736;SDS011;7459;53.590;10.062;2023-07-31T13:30:00;4.47;;;0.30;;
14736;SDS011;7459;53.590;10.062;2023-07-31T13:32:25;3.00;;;0.20;;
14736;SDS011;7459;53.590;10.062;2023-07-31T13:34:51;2.87;;;0.70;;
14736;SDS011;7459;53.590;10.062;2023-07-31T13:37:17;1.38;;;0.22;;
14736;SDS011;7459;53.590;10.062;2023-07-31T13:39:43;1.53;;;0.30;;
14736;SDS011;7459;53.590;10.062;2023-07-31T13:42:09;1.00;;;0.20;;
14736;SDS011;7459;53.590;10.062;2023-07-31T13:44:37;1.20;;;0.30;;
14736;SDS011;7459;53.590;10.062;2023-07-31T13:47:04;0.90;;;0.20;;
14736;SDS011;7459;53.590;10.062;2023-07-31T13:49:30;1.00;;;0.10;;
14736;SDS011;7459;53.590;10.062;2023-07-31T13:51:56;1.67;;;0.47;;
14736;SDS011;7459;53.590;10.062;2023-07-31T13:54:22;2.15;;;0.30;;
14736;SDS011;7459;53.590;10.062;2023-07-31T13:56:48;2.50;;;0.20;;
14736;SDS011;7459;53.590;10.062;2023-07-31T13:59:15;1.15;;;0.20;;
14736;SDS011;7459;53.590;10.062;2023-07-31T14:01:41;2.33;;;0.50;;
14736;SDS011;7459;53.590;10.062;2023-07-31T14:04:08;1.23;;;0.10;;
14736;SDS011;7459;53.590;10.062;2023-07-31T14:06:33;2.57;;;0.70;;
14736;SDS011;7459;53.590;10.062;2023-07-31T14:08:59;1.60;;;0.20;;
14736;SDS011;7459;53.590;10.062;2023-07-31T14:11:28;1.23;;;0.10;;
14736;SDS011;7459;53.590;10.062;2023-07-31T14:13:55;1.55;;;0.30;;
14736;SDS011;7459;53.590;10.062;2023-07-31T14:16:21;2.27;;;0.80;;
14736;SDS011;7459;53.590;10.062;2023-07-31T14:18:47;1.60;;;0.30;;
14736;SDS011;7459;53.590;10.062;2023-07-31T14:21:13;2.40;;;0.70;;
14736;SDS011;7459;53.590;10.062;2023-07-31T14:23:39;3.50;;;0.40;;
14736;SDS011;7459;53.590;10.062;2023-07-31T14:26:05;2.70;;;0.17;;
14736;SDS011;7459;53.590;10.062;2023-07-31T14:28:31;1.33;;;0.30;;
14736;SDS011;7459;53.590;10.062;2023-07-31T14:30:57;2.00;;;0.35;;
14736;SDS011;7459;53.590;10.062;2023-07-31T14:33:23;4.60;;;0.20;;
14736;SDS011;7459;53.590;10.062;2023-07-31T14:35:49;1.90;;;0.45;;
14736;SDS011;7459;53.590;10.062;2023-07-31T14:38:15;2.08;;;0.32;;
14736;SDS011;7459;53.590;10.062;2023-07-31T14:40:41;2.55;;;0.50;;
14736;SDS011;7459;53.590;10.062;2023-07-31T14:43:07;3.63;;;0.77;;
14736;SDS011;7459;53.590;10.062;2023-07-31T14:45:33;2.83;;;0.77;;
14736;SDS011;7459;53.590;10.062;2023-07-31T14:47:59;4.18;;;0.50;;
14736;SDS011;7459;53.590;10.062;2023-07-31T14:50:25;4.53;;;0.93;;
14736;SDS011;7459;53.590;10.062;2023-07-31T14:52:51;6.13;;;0.90;;
14736;SDS011;7459;53.590;10.062;2023-07-31T14:55:17;3.13;;;0.93;;
14736;SDS011;7459;53.590;10.062;2023-07-31T14:57:43;3.38;;;0.40;;
14736;SDS011;7459;53.590;10.062;2023-07-31T15:00:09;3.17;;;0.80;;
14736;SDS011;7459;53.590;10.062;2023-07-31T15:02:39;4.07;;;0.70;;